Latest Weather Observations for Charleville

IDQ60801

Issued at 4:52 pm EST Sunday 29 January 2023 (issued every 10 minutes, with the page automatically refreshed every 10 minutes)

About weather observations | Map of weather stations | Latest weather observations for QLD | Other Formats
Station Details ID: 044021 Name: CHARLEVILLE AERO Lat: -26.41 Lon: 146.26 Height: 301.6 m
Data from the previous 72 hours. | See also: Recent months at Charleville
Date/Time
EST
Temp
°C
App
Temp
°C
Dew
Point
°C
Rel
Hum
%
Delta-T
°C
Wind Press
QNH
hPa
Press
MSL
hPa
Rain since
9am
mm
Dir  Spd
km/h
Gust
km/h
Spd
kts
Gust
kts
29/04:30pm 35.6 33.7 11.9 24 14.3 NE 13 20 7 11 1009.1 1007.0 0.0
29/04:00pm 36.1 34.6 13.0 25 14.2 NNE 13 28 7 15 1009.2 1007.1 0.0
29/03:30pm 35.9 34.3 14.0 27 13.6 N 15 30 8 16 1009.6 1007.5 0.0
29/03:00pm 35.6 33.2 13.7 27 13.6 N 19 30 10 16 1010.1 1008.0 0.0
29/02:30pm 36.2 33.9 13.0 24 14.3 N 17 28 9 15 1010.5 1008.4 0.0
29/02:00pm 35.8 31.9 13.3 26 13.9 N 26 35 14 19 1010.9 1008.8 0.0
29/01:30pm 34.5 31.9 13.9 29 12.7 NNE 20 32 11 17 1011.4 1009.2 0.0
29/01:00pm 34.1 32.5 15.1 32 12.0 N 17 26 9 14 1011.7 1009.6 0.0
29/12:30pm 33.5 31.5 15.0 32 11.6 N 19 33 10 18 1012.2 1010.1 0.0
29/12:00pm 32.8 31.1 15.8 36 10.8 NNW 19 30 10 16 1012.6 1010.5 0.0
29/11:30am 32.8 30.2 15.8 36 10.8 N 24 35 13 19 1012.9 1010.8 0.0
29/11:00am 33.8 30.6 15.3 33 11.7 N 26 33 14 18 1013.1 1011.0 0.0
29/10:30am 32.3 30.5 17.0 40 9.8 N 22 33 12 18 1013.6 1011.5 0.0
29/10:00am 31.9 30.3 16.6 39 9.8 N 20 30 11 16 1013.8 1011.7 0.0
29/09:30am 31.5 29.9 17.4 43 9.1 N 22 30 12 16 1013.7 1011.6 0.0
29/09:00am 29.9 28.0 17.7 48 7.9 N 24 33 13 18 1013.9 1011.8 0.0
29/08:30am 29.2 28.3 18.3 51 7.1 N 20 30 11 16 1013.9 1011.8 0.0
29/08:00am 27.9 27.4 19.1 58 5.7 N 20 32 11 17 1013.8 1011.7 0.0
29/07:30am 26.7 25.9 19.3 64 4.8 NNE 22 32 12 17 1013.7 1011.6 0.0
29/07:00am 25.7 25.4 19.6 69 4.0 NNE 20 28 11 15 1013.4 1011.3 0.0
29/06:30am 25.1 25.4 19.7 72 3.5 NNE 17 28 9 15 1013.1 1011.0 0.0
29/06:00am 24.8 23.9 19.8 74 3.3 N 24 33 13 18 1012.5 1010.4 0.0
29/05:30am 25.0 24.7 19.6 72 3.5 NNE 20 32 11 17 1012.0 1009.9 0.0
29/05:00am 25.5 24.0 19.4 69 4.0 N 26 33 14 18 1011.7 1009.6 0.0
29/04:30am 25.6 25.5 19.5 69 4.0 N 19 26 10 14 1011.4 1009.2 0.0
29/04:00am 26.1 25.0 19.5 67 4.3 N 24 35 13 19 1011.1 1008.9 0.0
29/03:30am 26.5 25.6 19.1 64 4.8 N 22 30 12 16 1010.8 1008.7 0.0
29/03:00am 26.4 25.9 17.7 58 5.5 N 17 20 9 11 1010.7 1008.6 0.0
29/02:30am 26.9 26.2 17.4 56 6.0 NNE 17 22 9 12 1010.5 1008.4 0.0
29/02:00am 27.0 26.9 16.9 54 6.4 NNE 13 17 7 9 1010.5 1008.4 0.0
29/01:30am 27.3 27.8 16.6 52 6.7 NNE 9 13 5 7 1010.5 1008.4 0.0
29/01:00am 27.7 27.6 16.0 49 7.3 NNE 11 17 6 9 1010.6 1008.5 0.0
29/12:30am 28.5 27.8 15.4 45 8.1 NNE 13 17 7 9 1010.9 1008.8 0.0
29/12:00am 29.1 28.2 14.9 42 8.8 NNE 13 15 7 8 1011.2 1009.0 0.0
 
Date/Time
EST
Temp
°C
App
Temp
°C
Dew
Point
°C
Rel
Hum
%
Delta-T
°C
Wind Press
QNH
hPa
Press
MSL
hPa
Rain since
9am
mm
Dir  Spd
km/h
Gust
km/h
Spd
kts
Gust
kts
28/11:30pm 29.8 28.4 13.5 36 9.9 NNE 13 15 7 8 1011.2 1009.0 0.0
28/11:00pm 30.7 28.7 12.6 33 10.8 NNE 15 20 8 11 1011.1 1008.9 0.0
28/10:30pm 31.2 29.1 12.5 31 11.2 NE 15 20 8 11 1010.9 1008.8 0.0
28/10:00pm 31.8 29.2 12.1 30 11.8 ENE 17 26 9 14 1010.6 1008.5 0.0
28/09:30pm 32.1 29.7 11.3 28 12.3 ENE 15 20 8 11 1010.4 1008.3 0.0
28/09:00pm 32.0 29.9 11.2 28 12.3 ENE 13 17 7 9 1010.1 1008.0 0.0
28/08:30pm 31.9 30.4 10.6 27 12.4 ENE 9 11 5 6 1009.8 1007.7 0.0
28/08:00pm 32.4 30.9 10.4 26 12.8 E 9 11 5 6 1009.3 1007.2 0.0
28/07:30pm 32.9 31.7 10.3 25 13.2 E 7 11 4 6 1009.0 1006.9 0.0
28/07:00pm 35.2 33.6 8.9 20 15.2 ENE 7 9 4 5 1008.7 1006.6 0.0
28/06:30pm 35.9 33.7 9.4 20 15.4 E 11 15 6 8 1008.6 1006.5 0.0
28/06:00pm 36.2 34.1 9.7 20 15.6 NE 11 20 6 11 1008.6 1006.5 0.0
28/05:30pm 36.0 33.4 9.5 20 15.5 ENE 13 22 7 12 1008.4 1006.2 0.0
28/05:00pm 36.3 33.3 10.5 21 15.3 E 17 28 9 15 1008.4 1006.2 0.0
28/04:30pm 36.2 33.0 11.1 22 15.0 ENE 19 32 10 17 1008.4 1006.2 0.0
28/04:00pm 36.4 33.2 9.8 20 15.6 ENE 17 30 9 16 1008.6 1006.5 0.0
28/03:30pm 36.4 32.0 9.1 19 15.9 ENE 22 37 12 20 1008.8 1006.7 0.0
28/03:00pm 35.7 31.8 12.0 24 14.4 ENE 24 35 13 19 1009.1 1007.0 0.0
28/02:30pm 36.0 34.4 11.6 23 14.7 NE 11 19 6 10 1009.4 1007.3 0.0
28/02:00pm 35.6 33.2 11.3 23 14.6 NNE 15 24 8 13 1010.1 1008.0 0.0
28/01:30pm 35.7 32.9 11.4 23 14.6 NE 17 26 9 14 1010.5 1008.4 0.0
28/01:00pm 34.5 32.2 11.6 25 13.7 NNE 15 28 8 15 1010.9 1008.8 0.0
28/12:30pm 34.0 32.4 12.9 28 12.8 N 13 30 7 16 1011.3 1009.1 0.0
28/12:00pm 33.3 31.7 12.9 29 12.4 N 13 19 7 10 1011.7 1009.6 0.0
28/11:30am 33.2 32.3 14.8 33 11.5 NE 13 22 7 12 1012.0 1009.9 0.0
28/11:00am 32.1 30.1 15.6 37 10.4 NNE 20 28 11 15 1012.5 1010.4 0.0
28/10:30am 30.9 29.6 15.7 39 9.5 N 17 26 9 14 1012.8 1010.7 0.0
28/10:00am 30.9 29.1 16.1 41 9.3 N 20 30 11 16 1013.1 1011.0 0.0
28/09:30am 29.7 28.2 16.8 45 8.2 NNE 20 30 11 16 1013.4 1011.3 0.0
28/09:00am 28.6 26.4 16.8 48 7.5 N 24 32 13 17 1013.5 1011.4 0.0
28/08:30am 27.8 26.1 17.3 52 6.7 N 22 32 12 17 1013.6 1011.5 0.0
28/08:00am 26.8 25.7 17.8 57 5.7 NNE 20 32 11 17 1013.5 1011.4 0.0
28/07:30am 25.3 25.1 18.5 66 4.4 NE 17 26 9 14 1013.3 1011.2 0.0
28/07:00am 24.2 24.6 18.2 69 3.8 N 13 20 7 11 1012.9 1010.8 0.0
28/06:30am 23.9 24.7 18.1 70 3.7 NNE 11 13 6 7 1012.6 1010.5 0.0
28/06:00am 23.2 23.9 17.9 72 3.3 NE 11 15 6 8 1012.4 1010.3 0.0
28/05:30am 23.6 23.9 17.8 70 3.7 NNE 13 17 7 9 1011.9 1009.8 0.0
28/05:00am 23.8 23.7 17.8 69 3.8 NNE 15 19 8 10 1011.4 1009.2 0.0
28/04:30am 23.9 23.7 17.6 68 4.0 NNE 15 19 8 10 1010.8 1008.7 0.0
28/04:00am 24.2 24.3 17.4 65 4.3 NNE 13 17 7 9 1010.7 1008.6 0.0
28/03:30am 24.4 24.0 17.1 63 4.6 NE 15 19 8 10 1010.5 1008.4 0.0
28/03:00am 24.5 24.3 16.7 61 4.9 NE 13 20 7 11 1010.4 1008.3 0.0
28/02:30am 24.8 24.4 16.2 58 5.3 NE 13 17 7 9 1010.2 1008.1 0.0
28/02:00am 24.9 24.5 16.1 58 5.4 NE 13 19 7 10 1010.4 1008.3 0.0
28/01:30am 24.4 24.1 16.4 61 5.0 ENE 13 15 7 8 1010.5 1008.4 0.0
28/01:00am 23.7 23.9 16.7 65 4.4 ENE 11 13 6 7 1010.5 1008.4 0.0
28/12:30am 24.0 25.1 17.0 65 4.4 ENE 7 9 4 5 1010.5 1008.4 0.0
28/12:00am 24.2 24.9 17.0 64 4.5 NE 9 11 5 6 1010.4 1008.3 0.0
 
Date/Time
EST
Temp
°C
App
Temp
°C
Dew
Point
°C
Rel
Hum
%
Delta-T
°C
Wind Press
QNH
hPa
Press
MSL
hPa
Rain since
9am
mm
Dir  Spd
km/h
Gust
km/h
Spd
kts
Gust
kts
27/11:30pm 24.5 25.0 16.5 61 5.0 ENE 9 9 5 5 1010.7 1008.6 0.0
27/11:00pm 24.7 25.1 16.2 59 5.3 ENE 9 11 5 6 1010.9 1008.8 0.0
27/10:30pm 24.9 25.6 16.1 58 5.4 NE 7 9 4 5 1010.9 1008.8 0.0
27/10:00pm 25.3 25.4 15.6 55 6.0 NE 9 11 5 6 1010.9 1008.8 0.0
27/09:30pm 25.9 26.3 15.3 52 6.5 ENE 7 9 4 5 1011.1 1008.9 0.0
27/09:00pm 26.3 26.5 14.7 48 7.1 NE 7 9 4 5 1011.1 1008.9 0.0
27/08:30pm 27.0 26.7 14.4 46 7.6 E 9 13 5 7 1010.8 1008.7 0.0
27/08:00pm 27.7 27.5 13.6 42 8.5 ENE 7 9 4 5 1010.8 1008.7 0.0
27/07:30pm 28.8 28.2 13.5 39 9.2 E 9 11 5 6 1010.4 1008.3 0.0
27/07:00pm 29.6 28.4 12.9 35 10.0 N 11 13 6 7 1010.1 1008.0 0.0
27/06:30pm 30.5 28.4 12.4 33 10.8 NNE 15 17 8 9 1009.9 1007.8 0.0
27/06:00pm 29.9 26.9 13.6 36 9.9 ENE 22 35 12 19 1010.0 1007.9 0.0
27/05:30pm 29.8 26.1 15.1 40 9.1 ENE 28 41 15 22 1010.3 1008.2 0.0
27/05:00pm 27.8 25.0 16.4 50 7.2 ENE 26 41 14 22 1010.7 1008.6 0.0
27/04:30pm 27.5 23.3 17.1 53 6.6 E 35 54 19 29 1010.8 1008.7 0.0
27/04:26pm 27.3 23.0 16.9 53 6.6 E 35 54 19 29 1010.8 1008.7 0.0
27/04:20pm 27.7 24.0 17.5 53 6.5 ESE 33 52 18 28 1010.7 1008.6 0.0
27/04:16pm 27.3 23.4 16.9 53 6.6 ESE 33 46 18 25 1010.4 1008.3 0.0
27/04:02pm 27.0 21.0 16.9 54 6.4 ESE 44 65 24 35 1010.3 1008.2 0.0
27/04:00pm 27.2 21.2 16.8 53 6.6 ESE 44 65 24 35 1010.4 1008.3 0.0
27/03:58pm 28.1 22.2 16.7 50 7.2 ESE 43 65 23 35 1010.4 1008.3 0.0
27/03:34pm 33.3 31.7 13.9 31 12.0 SSE 15 54 8 29 1010.3 1008.2 0.0
27/03:30pm 35.5 35.3 14.7 28 13.1 SSW 9 20 5 11 1009.8 1007.7 0.0
27/03:00pm 33.7 32.1 12.7 28 12.8 SSW 13 19 7 10 1010.0 1007.9 0.0
27/02:48pm 34.5 32.5 12.8 27 13.2 SSW 15 20 8 11 1009.9 1007.8 0.0
27/02:32pm 34.9 33.6 13.7 28 13.1 WSW 13 26 7 14 1010.1 1008.0 0.0
27/02:31pm 35.0 33.5 13.2 27 13.4 WSW 13 26 7 14 1010.1 1008.0 0.0
27/02:30pm 35.1 34.3 13.9 28 13.1 WSW 11 26 6 14 1010.2 1008.1 0.0
27/02:00pm 35.8 34.6 15.0 29 13.1 ENE 15 26 8 14 1010.4 1008.3 0.0
27/01:59pm 35.7 34.3 14.4 28 13.3 NE 15 26 8 14 1010.4 1008.3 0.0
27/01:30pm 34.8 32.9 14.1 28 12.9 N 17 26 9 14 1010.7 1008.6 0.0
27/01:00pm 34.7 34.5 14.6 30 12.6 ESE 9 17 5 9 1011.7 1009.6 0.0
27/12:30pm 34.0 34.1 16.4 35 11.3 NNE 11 17 6 9 1012.3 1010.2 0.0
27/12:00pm 33.6 32.9 16.5 36 11.0 NNE 15 20 8 11 1012.9 1010.8 0.0
27/11:30am 32.5 32.0 16.8 39 10.1 N 15 30 8 16 1013.3 1011.2 0.0
27/11:00am 32.5 32.1 17.2 40 9.9 NNE 15 22 8 12 1013.5 1011.4 0.0
27/10:30am 31.6 31.4 17.5 43 9.1 NNE 15 24 8 13 1013.9 1011.8 0.0
27/10:00am 31.0 29.9 17.3 43 8.8 N 19 24 10 13 1014.1 1012.0 0.0
27/09:30am 30.3 29.5 17.0 44 8.5 N 17 24 9 13 1014.3 1012.2 0.0
27/09:00am 28.5 27.4 16.4 48 7.6 NNE 17 28 9 15 1014.3 1012.2 0.2
27/08:30am 27.4 27.4 17.3 54 6.4 NNE 13 19 7 10 1014.2 1012.1 0.2
27/08:00am 25.5 27.4 16.6 58 5.6 NNE 2 9 1 5 1014.1 1012.0 0.2
27/07:30am 24.5 26.3 16.5 61 5.0 SW 2 7 1 4 1013.9 1011.8 0.2
27/07:00am 23.3 24.3 16.8 67 4.0 S 7 9 4 5 1013.7 1011.6 0.2
27/06:30am 22.5 24.9 17.0 71 3.4 CALM 0 0 0 0 1013.4 1011.3 0.2
27/06:00am 22.2 24.4 16.5 70 3.5 CALM 0 6 0 3 1013.3 1011.2 0.2
27/05:30am 21.9 24.0 16.2 70 3.5 CALM 0 0 0 0 1013.1 1011.0 0.2
27/05:00am 22.3 24.4 16.3 69 3.7 CALM 0 0 0 0 1012.8 1010.7 0.2
27/04:30am 22.7 24.5 16.5 68 3.8 NNW 2 7 1 4 1012.3 1010.2 0.2
27/04:00am 23.3 23.7 16.4 65 4.3 E 9 11 5 6 1012.2 1010.1 0.2
27/03:30am 23.6 25.6 15.9 62 4.7 CALM 0 0 0 0 1011.7 1009.6 0.2
27/03:00am 23.7 24.6 16.0 62 4.7 NNE 6 7 3 4 1011.5 1009.4 0.2
27/02:30am 23.8 24.0 15.8 61 4.9 E 9 9 5 5 1011.6 1009.5 0.2
27/02:00am 23.9 24.0 15.4 59 5.2 SE 9 11 5 6 1011.4 1009.2 0.2
27/01:30am 24.1 23.9 15.6 59 5.2 ENE 11 13 6 7 1011.6 1009.5 0.2
27/01:00am 24.6 24.5 15.0 55 5.8 NNE 9 13 5 7 1011.4 1009.2 0.2
27/12:30am 25.1 23.5 14.9 53 6.2 N 17 22 9 12 1011.7 1009.6 0.2
27/12:00am 25.0 24.5 14.8 53 6.2 N 11 13 6 7 1012.4 1010.3 0.2
 
Date/Time
EST
Temp
°C
App
Temp
°C
Dew
Point
°C
Rel
Hum
%
Delta-T
°C
Wind Press
QNH
hPa
Press
MSL
hPa
Rain since
9am
mm
Dir  Spd
km/h
Gust
km/h
Spd
kts
Gust
kts
26/11:30pm 25.9 25.4 15.0 51 6.6 ENE 11 13 6 7 1012.7 1010.6 0.2
26/11:00pm 26.3 26.4 14.4 48 7.2 E 7 9 4 5 1012.8 1010.7 0.2
26/10:30pm 26.4 24.6 14.5 48 7.2 ENE 17 28 9 15 1012.5 1010.4 0.2
26/10:00pm 26.2 24.0 15.0 50 6.8 ENE 20 30 11 16 1013.6 1011.5 0.2
26/09:30pm 25.8 23.9 15.2 52 6.5 ENE 19 28 10 15 1013.9 1011.8 0.2
26/09:00pm 26.3 24.1 15.0 49 6.9 NE 20 32 11 17 1014.2 1012.1 0.2
26/08:30pm 25.9 25.0 15.9 54 6.2 ENE 15 20 8 11 1014.6 1012.5 0.2
26/08:00pm 25.6 26.0 17.3 60 5.2 ENE 11 17 6 9 1014.4 1012.4 0.2
26/07:30pm 24.9 25.6 17.1 62 4.9 SSE 9 13 5 7 1013.9 1011.8 0.2
26/07:00pm 26.5 25.3 16.1 52 6.5 SSW 17 28 9 15 1014.1 1012.0 0.0
26/06:30pm 26.8 26.6 15.8 51 6.8 WSW 11 17 6 9 1013.8 1011.7 0.0
26/06:00pm 27.4 25.9 15.4 48 7.4 S 17 24 9 13 1013.0 1010.9 0.0
26/05:30pm 28.6 24.5 13.7 40 9.0 S 28 39 15 21 1012.8 1010.7 0.0
26/05:00pm 29.1 25.2 14.5 41 8.9 S 28 43 15 23 1012.1 1010.0 0.0

Other formats

Comma delimited format used in spreadsheet applications
http://www.bom.gov.au/fwo/IDQ60801/IDQ60801.94510.axf

JavaScript Object Notation format (JSON) in row-major order
http://www.bom.gov.au/fwo/IDQ60801/IDQ60801.94510.json

Data quality

Most of these data are generated automatically and are frequently updated. Quality checks on data are not normally performed. It is possible for incorrect values to appear. Refer to information at About Latest Weather Observations and please check the disclaimer before using these data.